• Join FlightAware (Why Join?)
  • Login
  • US Flag 
11:18PM EDT


 

Airport Tracker/Info


-or-


 

Live Flight TrackerFlight Track Log ✈ EJM989 ✈ 18-Aug-2013 ✈ EINN / SNN - KBED

Flight Track Log - Related Links

Times and Time Zones

All times are in EDT time to prevent confusion due to time zone crossing. See the EJM989 flight status page for this flight to view local times or setup timezone preferences in your user account.

Time Position Orientation Groundspeed Altitude Reporting Facility
EDT Latitude Longitude Course Direction KTS MPH feet Rate Location/Type
07:10PM 52.4000 -52.5833 237° Southwest 480 552 43,000  Level Gander Center
07:11PM 52.3333 -52.7500 237° Southwest 460 529 43,000  Level Gander Center
07:12PM 52.2667 -52.9667 243° Southwest 480 552 43,000  Level Gander Center
07:13PM 52.2167 -53.1333 244° Southwest 480 552 43,000  Level Gander Center
07:14PM 52.1500 -53.3500 243° Southwest 470 541 43,000  Level Gander Center
07:15PM 52.0667 -53.5167 231° Southwest 470 541 43,000  Level Gander Center
07:16PM 52.0167 -53.7000 246° West 470 541 43,000  Level Gander Center
07:17PM 51.9500 -53.8667 237° Southwest 480 552 43,000  Level Gander Center
07:18PM 51.8667 -54.0667 236° Southwest 470 541 43,000  Level Gander Center
07:19PM 51.8000 -54.2500 240° Southwest 470 541 43,000  Level Gander Center
07:20PM 51.7500 -54.4500 248° West 470 541 43,000  Level Gander Center
07:21PM 51.6667 -54.6167 231° Southwest 470 541 43,000  Level Gander Center
07:22PM 51.6167 -54.7833 244° Southwest 470 541 43,000  Level Gander Center
07:23PM 51.5333 -54.9833 236° Southwest 470 541 43,000  Level Gander Center
07:24PM 51.4667 -55.1500 237° Southwest 480 552 43,000  Level Gander Center
07:25PM 51.4000 -55.3333 240° Southwest 480 552 43,000  Level Gander Center
07:26PM 51.3333 -55.5167 240° Southwest 470 541 43,000  Level Gander Center
07:27PM 51.2500 -55.7000 234° Southwest 460 529 43,000  Level Gander Center
07:28PM 51.1833 -55.8833 240° Southwest 470 541 43,000  Level Gander Center
07:29PM 51.1167 -56.0333 235° Southwest 460 529 43,000  Level Gander Center
07:30PM 51.0500 -56.2333 242° Southwest 470 541 43,000  Level Gander Center
07:31PM 50.9833 -56.4000 238° Southwest 470 541 43,000  Level Gander Center
07:32PM 50.9167 -56.5833 240° Southwest 470 541 43,000  Level Gander Center
07:33PM 50.8500 -56.7500 238° Southwest 470 541 43,000  Level Gander Center
07:34PM 50.7667 -56.9167 232° Southwest 470 541 43,000  Level Gander Center
07:35PM 50.7000 -57.0833 238° Southwest 470 541 43,000  Level Gander Center
07:36PM 50.6333 -57.2667 240° Southwest 460 529 43,000  Level Gander Center
07:37PM 50.5500 -57.4333 232° Southwest 470 541 43,000  Level Gander Center
07:38PM 50.4833 -57.6000 238° Southwest 460 529 43,000  Level Gander Center
07:39PM 50.4167 -57.7667 238° Southwest 470 541 43,000  Level Gander Center
07:40PM 50.3333 -57.9500 235° Southwest 460 529 43,000  Level Gander Center
07:41PM 50.2833 -58.1167 245° Southwest 460 529 43,000  Level Gander Center
07:42PM 50.2000 -58.2833 232° Southwest 460 529 43,000  Level Gander Center
07:43PM 50.1333 -58.3833 224° Southwest 460 529 43,000  Level Moncton Center
07:44PM 50.0667 -58.5833 243° Southwest 460 529 43,000  Level Moncton Center
07:45PM 50.0000 -58.7167 232° Southwest 460 529 43,000  Level Moncton Center
07:46PM 49.9333 -58.9000 241° Southwest 460 529 43,000  Level Moncton Center
07:47PM 49.8500 -59.0500 229° Southwest 450 518 43,000  Level Moncton Center
07:48PM 49.7833 -59.2333 241° Southwest 460 529 43,000  Level Moncton Center
07:49PM 49.7167 -59.3667 232° Southwest 460 529 43,000  Level Moncton Center
07:50PM 49.6333 -59.5333 232° Southwest 460 529 43,000  Level Moncton Center
07:51PM 49.5667 -59.7000 238° Southwest 460 529 43,000  Level Moncton Center
07:52PM 49.5000 -59.8500 236° Southwest 460 529 43,000  Level Moncton Center
07:53PM 49.4333 -60.0167 238° Southwest 460 529 43,000  Level Moncton Center
07:54PM 49.3500 -60.1833 233° Southwest 460 529 43,000  Level Moncton Center
07:55PM 49.2667 -60.3500 233° Southwest 460 529 43,000  Level Moncton Center
07:56PM 49.1833 -60.5000 230° Southwest 460 529 43,000  Level Moncton Center
07:57PM 49.1167 -60.6833 241° Southwest 460 529 43,000  Level Moncton Center
07:58PM 49.0500 -60.8167 233° Southwest 460 529 43,000  Level Moncton Center
07:59PM 48.9667 -61.0000 235° Southwest 460 529 43,000  Level Moncton Center
08:00PM 48.9000 -61.1333 233° Southwest 460 529 43,000  Level Moncton Center
08:01PM 48.8333 -61.3000 239° Southwest 450 518 43,000  Level Moncton Center
08:02PM 48.7500 -61.4500 230° Southwest 450 518 43,000  Level Moncton Center
08:03PM 48.6667 -61.6000 230° Southwest 450 518 43,000  Level Moncton Center
08:04PM 48.5833 -61.7667 233° Southwest 450 518 43,000  Level Moncton Center
08:05PM 48.5333 -61.9167 243° Southwest 450 518 43,000  Level Moncton Center
08:06PM 48.4500 -62.0667 230° Southwest 450 518 43,000  Level Moncton Center
08:07PM 48.3667 -62.2333 233° Southwest 440 506 43,000  Level Moncton Center
08:08PM 48.3000 -62.3500 229° Southwest 450 518 43,000  Level Moncton Center
08:09PM 48.2167 -62.5167 233° Southwest 450 518 43,000  Level Moncton Center
08:10PM 48.1500 -62.6667 236° Southwest 450 518 43,000  Level Moncton Center
08:11PM 48.0667 -62.8167 230° Southwest 450 518 43,000  Level Moncton Center
08:12PM 48.0000 -62.9667 236° Southwest 450 518 43,000  Level Moncton Center
08:13PM 47.9333 -63.1167 236° Southwest 450 518 43,000  Level Moncton Center
08:14PM 47.8500 -63.2667 230° Southwest 450 518 43,000  Level Moncton Center
08:15PM 47.7667 -63.4000 227° Southwest 440 506 43,000  Level Moncton Center
08:16PM 47.7000 -63.5500 237° Southwest 440 506 43,000  Level Moncton Center
08:17PM 47.6167 -63.7000 231° Southwest 440 506 43,000  Level Moncton Center
08:18PM 47.5500 -63.8333 234° Southwest 450 518 43,000  Level Moncton Center
08:19PM 47.4667 -63.9833 231° Southwest 450 518 43,000  Level Moncton Center
08:20PM 47.3833 -64.1333 231° Southwest 440 506 43,000  Level Moncton Center
08:21PM 47.3167 -64.2667 234° Southwest 440 506 43,000  Level Moncton Center
08:22PM 47.2333 -64.4167 231° Southwest 440 506 43,000  Level Moncton Center
08:23PM 47.1500 -64.5667 231° Southwest 440 506 43,000  Level Moncton Center
08:24PM 47.0833 -64.7000 234° Southwest 440 506 43,000  Level Moncton Center
08:25PM 47.0000 -64.8333 228° Southwest 450 518 43,000  Level Moncton Center
08:26PM 46.9333 -64.9833 237° Southwest 450 518 43,000  Level Moncton Center
08:27PM 46.8500 -65.1333 231° Southwest 440 506 43,000  Level Moncton Center
08:28PM 46.7667 -65.2833 231° Southwest 440 506 43,000  Level Moncton Center
08:29PM 46.6833 -65.4000 224° Southwest 440 506 43,000  Level Moncton Center
08:30PM 46.6000 -65.5500 231° Southwest 440 506 43,000  Level Moncton Center
08:31PM 46.5333 -65.6667 230° Southwest 430 495 43,000  Level Moncton Center
08:32PM 46.4500 -65.8000 228° Southwest 430 495 43,000  Level Moncton Center
08:33PM 46.3833 -65.9500 237° Southwest 440 506 43,000  Level Moncton Center
08:34PM 46.3000 -66.1000 231° Southwest 430 495 43,000  Level Moncton Center
08:35PM 46.2333 -66.2167 230° Southwest 430 495 43,000  Level Moncton Center
08:36PM 46.1500 -66.3500 228° Southwest 430 495 43,000  Level Moncton Center
08:37PM 46.0667 -66.4667 224° Southwest 430 495 43,000  Level Moncton Center
08:38PM 46.0000 -66.6167 237° Southwest 430 495 43,000  Level Moncton Center
08:39PM 45.9167 -66.7333 224° Southwest 430 495 43,000  Level Moncton Center
08:40PM 45.8500 -66.8667 234° Southwest 420 483 43,000  Level Moncton Center
08:41PM 45.7833 -66.9833 231° Southwest 420 483 43,000  Level Moncton Center
08:42PM 45.7000 -67.1333 232° Southwest 410 472 43,000  Level Moncton Center
08:43PM 45.6167 -67.2500 224° Southwest 410 472 43,000  Level Moncton Center
08:44PM 45.5500 -67.3667 231° Southwest 410 472 43,000  Level Moncton Center
08:45PM 45.4667 -67.5000 228° Southwest 420 483 43,000  Level Moncton Center
08:46PM 45.3833 -67.6167 225° Southwest 420 483 43,000 -540 Level Moncton Center
08:47PM 45.3000 -67.7333 225° Southwest 420 483 42,000 -1,260 Descending Moncton Center
08:48PM 45.2167 -67.8667 228° Southwest 410 472 40,500 -1,380 Descending Moncton Center
08:48PM 45.2136 -67.8931 261° West 419 482 40,000 -1,260 Descending Boston Center
08:49PM 45.1347 -68.0053 225° Southwest 414 476 38,600 -1,440 Descending Boston Center
08:50PM 45.0558 -68.1231 227° Southwest 414 476 37,200 -1,320 Descending Boston Center
08:51PM 44.9767 -68.2406 226° Southwest 419 482 36,000 -660 Descending Boston Center
08:52PM 44.8933 -68.3519 223° Southwest 419 482 36,000  Level Boston Center
08:53PM 44.8119 -68.4689 226° Southwest 419 482 36,000  Level Boston Center
08:54PM 44.7325 -68.5883 227° Southwest 419 482 36,000  Level Boston Center
08:55PM 44.6486 -68.7019 224° Southwest 424 488 36,000  Level Boston Center
08:56PM 44.5692 -68.8178 226° Southwest 424 488 36,000  Level Boston Center
08:57PM 44.4869 -68.9306 224° Southwest 424 488 36,000 -360 Level Boston Center
08:58PM 44.3972 -69.0578 225° Southwest 424 488 35,400 -1,260 Descending Boston Center
08:59PM 44.3108 -69.1731 224° Southwest 424 488 33,600 -1,920 Descending Boston Center
09:00PM 44.2267 -69.2936 226° Southwest 424 488 31,600 -2,040 Descending Boston Center
09:01PM 44.1381 -69.4111 224° Southwest 424 488 29,600 -2,040 Descending Boston Center
09:02PM 44.0536 -69.5339 226° Southwest 430 495 27,600 -2,040 Descending Boston Center
09:03PM 43.9650 -69.6536 224° Southwest 441 507 25,600 -2,040 Descending Boston Center
09:04PM 43.8761 -69.7758 225° Southwest 446 513 23,600 -2,040 Descending Boston Center
09:05PM 43.7911 -69.8889 224° Southwest 439 505 21,500 -1,920 Descending Boston Center
09:06PM 43.7222 -69.9808 224° Southwest 434 499 19,900 -1,920 Descending Boston Center
09:07PM 43.6253 -70.1167 225° Southwest 421 484 17,800 -2,040 Descending Boston Center
09:08PM 43.5500 -70.2142 223° Southwest 421 484 15,900 -2,040 Descending Boston Center
09:09PM 43.4647 -70.3347 226° Southwest 413 475 13,700 -2,040 Descending Boston Center
09:10PM 43.3956 -70.4228 223° Southwest 390 449 11,900 -1,380 Descending Boston Center
09:11PM 43.3158 -70.5167 221° Southwest 379 436 11,100 -540 Descending Boston Center
09:12PM 43.2256 -70.6108 217° Southwest 374 430 10,900 -600 Descending Boston Center
09:13PM 43.1558 -70.6811 216° Southwest 361 415 10,000 -1,200 Descending Boston Center
09:14PM 43.1000 -70.7333 214° Southwest 300 345 9,000 -1,620 Descending KA90
09:15PM 43.0500 -70.7833 216° Southwest 283 326 7,600 -1,740 Descending KA90
09:16PM 42.9833 -70.8500 216° Southwest 278 320 5,700 -1,440 Descending KA90
09:17PM 42.9167 -70.9000 209° Southwest 268 308 4,800 -840 Descending KA90
09:18PM 42.8667 -70.9500 216° Southwest 263 303 4,100 -900 Descending KA90
09:19PM 42.8000 -71.0000 209° Southwest 259 298 3,100 -720 Descending KA90
09:19PM 42.7731 -71.0286 218° Southwest 272 313 3,100 60 Level Boston Center
09:20PM 42.7133 -71.0781 211° Southwest 272 313 3,200 -60 Climbing Boston Center
09:21PM 42.6575 -71.1386 219° Southwest 267 307 3,000 -300 Descending Boston Center
09:22PM 42.6100 -71.1764 210° Southwest 228 262 2,700 -420 Descending Boston Center
09:23PM 42.5833 -71.2000 213° Southwest 184 212 2,400 -240 Descending KA90
09:24PM 42.5667 -71.2500 246° West 157 181 2,400 -60 Level KA90
09:25PM 42.5500 -71.3000 246° West 161 185 2,300 -180 Descending KA90
09:26PM 42.5333 -71.3667 251° West 167 192 2,100 -420 Descending KA90
09:27PM 42.5000 -71.3667 180° South 141 162 1,500 -780 Descending KA90
09:28PM 42.4833 -71.3333 124° Southeast 138 159 600 -900 Descending KA90
09:30PM 42.4667 -71.2833 209° Southwest  Level FlightAware Approximate
09:37PM 42.4699 -71.2890 209° Southwest  Level Estimated
09:38PM 42.4667 -71.2833 209° Southwest  Level FlightAware Approximate
09:39PM 42.4699 -71.2890 209° Southwest  Level Estimated
09:40PM 42.4667 -71.2833 209° Southwest  Level FlightAware Approximate
09:41PM 42.4699 -71.2890 209° Southwest  Level Estimated